createdAt,value
2022-09-24T00:01:16.712Z,87.85
2022-09-24T00:03:48.469Z,87.22
2022-09-24T00:06:19.218Z,87.93
2022-09-24T00:08:49.764Z,87.33
2022-09-24T00:11:22.257Z,88.36
2022-09-24T00:13:52.862Z,87.59
2022-09-24T00:16:25.873Z,88.02
2022-09-24T00:18:55.782Z,88.77
2022-09-24T00:21:27.773Z,87.48
2022-09-24T00:23:59.089Z,86.98
2022-09-24T00:26:43.828Z,88.79
2022-09-24T00:29:15.443Z,89.76
2022-09-24T00:31:45.369Z,89.86
2022-09-24T00:34:15.056Z,90.49
2022-09-24T00:36:46.973Z,88.60
2022-09-24T00:39:17.050Z,86.87
2022-09-24T00:41:49.987Z,87.96
2022-09-24T00:44:50.972Z,88.91
2022-09-24T00:47:36.526Z,87.00
2022-09-24T00:50:16.067Z,88.86
2022-09-24T00:52:50.235Z,90.86
2022-09-24T00:55:21.519Z,89.95
2022-09-24T00:57:56.357Z,90.40
2022-09-24T01:00:26.833Z,91.44
2022-09-24T01:03:02.702Z,91.07
2022-09-24T01:05:32.940Z,90.65
2022-09-24T01:08:02.621Z,92.72
2022-09-24T01:10:51.814Z,90.91
2022-09-24T01:13:43.381Z,89.38
2022-09-24T01:16:22.781Z,88.80
2022-09-24T01:18:58.172Z,89.07
2022-09-24T01:21:35.179Z,87.88
2022-09-24T01:24:24.462Z,88.84
2022-09-24T01:27:10.726Z,89.09
2022-09-24T01:30:01.694Z,89.13
2022-09-24T01:32:37.598Z,89.71
2022-09-24T01:35:15.873Z,90.73
2022-09-24T01:37:52.187Z,90.27
2022-09-24T01:40:24.893Z,89.22
2022-09-24T01:42:56.266Z,88.91
2022-09-24T01:45:32.191Z,89.51
2022-09-24T01:48:03.621Z,89.23
2022-09-24T01:50:37.756Z,90.35
2022-09-24T01:53:12.172Z,90.08
2022-09-24T01:55:48.299Z,90.82
2022-09-24T01:58:21.718Z,90.35
2022-09-24T02:01:01.199Z,88.78
2022-09-24T02:03:34.664Z,88.61
2022-09-24T02:06:08.186Z,88.45
2022-09-24T02:08:44.325Z,89.86
2022-09-24T02:11:16.108Z,90.32
2022-09-24T02:13:50.263Z,92.13
2022-09-24T02:16:27.649Z,90.89
2022-09-24T02:19:00.867Z,90.69
2022-09-24T02:21:33.742Z,90.02
2022-09-24T02:24:10.171Z,90.22
2022-09-24T02:26:39.866Z,90.07
2022-09-24T02:29:09.764Z,90.18
2022-09-24T02:31:46.102Z,92.46
2022-09-24T02:34:25.830Z,94.19
2022-09-24T02:36:58.095Z,93.20
2022-09-24T02:39:28.199Z,91.70
2022-09-24T02:41:58.541Z,90.71
2022-09-24T02:44:29.277Z,91.57
2022-09-24T02:47:01.616Z,90.83
2022-09-24T02:49:31.915Z,90.62
2022-09-24T02:52:01.854Z,91.43
2022-09-24T02:54:31.625Z,90.70
2022-09-24T02:57:01.256Z,90.71
2022-09-24T02:59:30.908Z,90.92
2022-09-24T03:02:03.338Z,92.84
2022-09-24T03:04:35.920Z,93.56
2022-09-24T03:07:05.790Z,93.15
2022-09-24T03:09:35.479Z,93.56
2022-09-24T03:12:05.585Z,92.53
2022-09-24T03:14:35.230Z,92.85
2022-09-24T03:17:07.532Z,92.37
2022-09-24T03:19:37.300Z,92.97
2022-09-24T03:22:07.063Z,93.40
2022-09-24T03:24:36.763Z,92.28
2022-09-24T03:27:06.753Z,91.93
2022-09-24T03:29:48.873Z,91.18
2022-09-24T03:32:21.634Z,92.41
2022-09-24T03:34:51.280Z,91.48
2022-09-24T03:37:21.092Z,91.15
2022-09-24T03:39:50.737Z,91.62
2022-09-24T03:42:20.362Z,92.90
2022-09-24T03:44:50.014Z,91.98
2022-09-24T03:47:22.255Z,91.62
2022-09-24T03:49:53.520Z,91.87
2022-09-24T03:52:23.267Z,92.47
2022-09-24T03:54:53.584Z,92.71
2022-09-24T03:57:23.245Z,92.47
2022-09-24T03:59:54.171Z,92.34
2022-09-24T04:02:26.457Z,91.80
2022-09-24T04:04:56.135Z,90.94
2022-09-24T04:07:25.798Z,90.98
2022-09-24T04:09:55.452Z,91.33
2022-09-24T04:12:25.184Z,91.26
2022-09-24T04:14:54.844Z,90.37
2022-09-24T04:17:31.445Z,92.40
2022-09-24T04:20:01.213Z,92.02
2022-09-24T04:22:31.092Z,91.75
2022-09-24T04:25:00.780Z,92.17
2022-09-24T04:27:31.298Z,91.30
2022-09-24T04:30:01.102Z,92.80
2022-09-24T04:32:33.330Z,92.07
2022-09-24T04:35:07.408Z,91.41
2022-09-24T04:37:37.697Z,91.11
2022-09-24T04:40:12.755Z,90.39
2022-09-24T04:42:43.352Z,90.84
2022-09-24T04:45:14.667Z,91.42
2022-09-24T04:47:46.977Z,91.23
2022-09-24T04:50:16.820Z,90.37
2022-09-24T04:52:46.744Z,90.22
2022-09-24T04:55:16.811Z,90.66
2022-09-24T04:57:46.422Z,92.06
2022-09-24T05:00:19.729Z,92.93
2022-09-24T05:02:59.015Z,92.47
2022-09-24T05:05:29.372Z,90.96
2022-09-24T05:07:59.266Z,90.27
2022-09-24T05:10:29.650Z,91.84
2022-09-24T05:12:59.237Z,90.92
2022-09-24T05:15:29.229Z,90.78
2022-09-24T05:18:01.752Z,91.07
2022-09-24T05:20:32.215Z,91.00
2022-09-24T05:23:01.856Z,90.68
2022-09-24T05:25:31.560Z,90.46
2022-09-24T05:27:58.638Z,91.47
2022-09-24T05:30:28.347Z,92.06
2022-09-24T05:32:58.244Z,90.64
2022-09-24T05:35:30.451Z,90.66
2022-09-24T05:38:00.098Z,90.39
2022-09-24T05:40:51.021Z,90.32
2022-09-24T05:43:22.317Z,90.41
2022-09-24T05:45:52.818Z,92.19
2022-09-24T05:48:22.446Z,91.51
2022-09-24T05:50:55.668Z,90.75
2022-09-24T05:53:25.823Z,91.42
2022-09-24T05:55:55.677Z,90.99
2022-09-24T05:58:25.383Z,91.10
2022-09-24T06:00:55.077Z,90.92
2022-09-24T06:03:24.907Z,90.75
2022-09-24T06:05:59.745Z,90.14
2022-09-24T06:08:29.485Z,90.74
2022-09-24T06:11:02.606Z,90.86
2022-09-24T06:13:33.821Z,90.52
2022-09-24T06:16:04.338Z,89.86
2022-09-24T06:18:36.428Z,90.43
2022-09-24T06:21:11.528Z,90.01
2022-09-24T06:23:42.567Z,90.03
2022-09-24T06:26:14.946Z,89.76
2022-09-24T06:28:45.053Z,89.96
2022-09-24T06:31:14.985Z,88.24
2022-09-24T06:33:44.678Z,88.51
2022-09-24T06:36:17.125Z,89.25
2022-09-24T06:38:46.820Z,88.51
2022-09-24T06:41:16.548Z,88.34
2022-09-24T06:43:46.224Z,87.68
2022-09-24T06:46:16.209Z,87.64
2022-09-24T06:48:45.818Z,87.86
2022-09-24T06:51:18.223Z,87.66
2022-09-24T06:53:47.931Z,87.53
2022-09-24T06:56:17.848Z,87.29
2022-09-24T06:58:47.558Z,87.87
2022-09-24T07:01:17.415Z,88.68
2022-09-24T07:03:47.226Z,89.23
2022-09-24T07:06:19.665Z,88.08
2022-09-24T07:08:53.827Z,86.90
2022-09-24T07:11:23.713Z,86.94
2022-09-24T07:13:54.965Z,86.82
2022-09-24T07:16:24.786Z,86.68
2022-09-24T07:18:54.459Z,86.91
2022-09-24T07:21:26.829Z,87.66
2022-09-24T07:23:58.750Z,86.33
2022-09-24T07:26:28.619Z,86.39
2022-09-24T07:28:58.389Z,86.08
2022-09-24T07:31:28.176Z,86.31
2022-09-24T07:33:57.985Z,85.99
2022-09-24T07:36:31.238Z,85.84
2022-09-24T07:39:01.425Z,85.61
2022-09-24T07:41:34.076Z,85.97
2022-09-24T07:44:06.249Z,85.51
2022-09-24T07:46:36.003Z,85.07
2022-09-24T07:49:06.240Z,84.53
2022-09-24T07:51:38.628Z,84.31
2022-09-24T07:54:08.662Z,84.61
2022-09-24T07:56:38.307Z,84.92
2022-09-24T07:59:11.342Z,84.87
2022-09-24T08:01:41.108Z,83.99
2022-09-24T08:04:11.172Z,84.71
2022-09-24T08:06:47.414Z,83.82
2022-09-24T08:09:18.567Z,83.23
2022-09-24T08:11:48.491Z,83.34
2022-09-24T08:14:18.400Z,83.02
2022-09-24T08:16:48.108Z,83.13
2022-09-24T08:19:17.788Z,83.75
2022-09-24T08:21:50.452Z,82.86
2022-09-24T08:24:20.122Z,82.95
2022-09-24T08:26:49.761Z,84.01
2022-09-24T08:29:19.552Z,83.63
2022-09-24T08:31:49.321Z,83.37
2022-09-24T08:34:19.069Z,82.68
2022-09-24T08:36:51.282Z,83.37
2022-09-24T08:39:21.162Z,84.37
2022-09-24T08:41:57.296Z,83.31
2022-09-24T08:44:46.087Z,81.98
2022-09-24T08:47:25.977Z,80.31
2022-09-24T08:50:10.259Z,80.12
2022-09-24T08:52:54.437Z,79.18
2022-09-24T08:55:33.040Z,78.11
2022-09-24T08:58:17.781Z,76.53
2022-09-24T09:00:54.531Z,77.33
2022-09-24T09:03:33.273Z,74.86
2022-09-24T09:06:06.860Z,73.53
2022-09-24T09:09:06.235Z,73.69
2022-09-24T09:11:38.487Z,73.72
2022-09-24T09:14:15.449Z,73.41
2022-09-24T09:16:52.256Z,70.17
2022-09-24T09:19:29.264Z,71.39
2022-09-24T09:22:04.119Z,70.08
2022-09-24T09:24:44.787Z,69.20
2022-09-24T09:27:17.057Z,69.78
2022-09-24T09:29:48.769Z,68.90
2022-09-24T09:32:35.137Z,69.34
2022-09-24T09:35:13.633Z,68.66
2022-09-24T09:37:50.010Z,68.70
2022-09-24T09:40:39.164Z,67.48
2022-09-24T09:43:13.995Z,67.32
2022-09-24T09:45:50.627Z,68.98
2022-09-24T09:48:22.474Z,69.32
2022-09-24T09:50:55.126Z,69.64
2022-09-24T09:53:26.557Z,69.78
2022-09-24T09:56:01.352Z,70.35
2022-09-24T09:58:33.807Z,71.14
2022-09-24T10:01:09.911Z,71.00
2022-09-24T10:03:51.110Z,70.64
2022-09-24T10:06:27.541Z,70.49
2022-09-24T10:08:57.666Z,70.96
2022-09-24T10:11:30.039Z,70.63
2022-09-24T10:14:05.525Z,71.01
2022-09-24T10:16:40.883Z,70.43
2022-09-24T10:19:18.884Z,71.72
2022-09-24T10:21:48.735Z,72.70
2022-09-24T10:24:21.507Z,71.72
2022-09-24T10:26:54.677Z,72.82
2022-09-24T10:29:40.435Z,72.60
2022-09-24T10:32:18.231Z,72.59
2022-09-24T10:34:58.593Z,73.70
2022-09-24T10:37:29.363Z,74.06
2022-09-24T10:40:02.662Z,75.50
2022-09-24T10:42:34.884Z,74.33
2022-09-24T10:45:06.165Z,74.93
2022-09-24T10:47:44.144Z,76.58
2022-09-24T10:50:33.904Z,76.46
2022-09-24T10:53:09.745Z,75.24
2022-09-24T10:55:58.035Z,74.73
2022-09-24T10:58:47.498Z,73.89
2022-09-24T11:01:22.018Z,76.68
2022-09-24T11:04:21.110Z,77.30
2022-09-24T11:07:15.720Z,76.99
2022-09-24T11:09:53.026Z,77.43
2022-09-24T11:12:31.513Z,77.42
2022-09-24T11:15:20.343Z,78.57
2022-09-24T11:18:07.270Z,80.57
2022-09-24T11:20:40.197Z,80.64
2022-09-24T11:23:36.123Z,81.35
2022-09-24T11:26:18.614Z,82.45
2022-09-24T11:29:09.214Z,83.05
2022-09-24T11:31:45.212Z,81.09
2022-09-24T11:34:29.927Z,79.67
2022-09-24T11:37:12.912Z,78.59
2022-09-24T11:40:00.181Z,78.28
2022-09-24T11:42:36.203Z,75.66
2022-09-24T11:45:31.349Z,74.97
2022-09-24T11:48:24.210Z,74.82
2022-09-24T11:51:03.995Z,76.05
2022-09-24T11:53:42.113Z,76.29
2022-09-24T11:56:18.900Z,75.90
2022-09-24T11:58:52.772Z,77.12
2022-09-24T12:01:26.518Z,80.01
2022-09-24T12:04:04.269Z,82.47
2022-09-24T12:06:39.495Z,84.87
2022-09-24T12:09:17.236Z,85.72
2022-09-24T12:11:53.185Z,86.22
2022-09-24T12:14:26.872Z,89.53
2022-09-24T12:17:01.916Z,89.54
2022-09-24T12:19:40.861Z,90.43
2022-09-24T12:22:13.504Z,90.23
2022-09-24T12:24:49.101Z,89.97
2022-09-24T12:27:22.207Z,92.23
2022-09-24T12:30:11.195Z,92.50
2022-09-24T12:32:57.761Z,92.62
2022-09-24T12:36:00.687Z,92.50
2022-09-24T12:38:36.718Z,93.15
2022-09-24T12:41:27.309Z,94.90
2022-09-24T12:44:02.908Z,94.71
2022-09-24T12:46:38.186Z,97.09
2022-09-24T12:49:18.464Z,97.04
2022-09-24T12:51:51.318Z,98.95
2022-09-24T12:54:28.682Z,99.06
2022-09-24T12:57:10.313Z,100.00
2022-09-24T12:59:51.612Z,100.00
2022-09-24T13:02:24.307Z,100.00
2022-09-24T13:05:16.192Z,100.00
2022-09-24T13:07:59.603Z,100.00
2022-09-24T13:10:32.028Z,100.00
2022-09-24T13:13:04.469Z,100.00
2022-09-24T13:15:37.364Z,98.04
2022-09-24T13:18:24.390Z,98.07
2022-09-24T13:21:03.687Z,96.77
2022-09-24T13:23:47.740Z,96.81
2022-09-24T13:26:33.841Z,96.42
2022-09-24T13:29:05.875Z,98.64
2022-09-24T13:31:47.953Z,98.42
2022-09-24T13:34:23.065Z,97.06
2022-09-24T13:37:00.949Z,98.79
2022-09-24T13:39:38.346Z,99.95
2022-09-24T13:42:17.433Z,99.14
2022-09-24T13:44:50.259Z,98.86
2022-09-24T13:47:30.314Z,98.80
2022-09-24T13:50:10.568Z,100.00
2022-09-24T13:52:45.107Z,100.00
2022-09-24T13:55:23.407Z,99.74
2022-09-24T13:57:53.379Z,98.24
2022-09-24T14:00:27.740Z,95.88
2022-09-24T14:03:01.261Z,96.95
2022-09-24T14:05:31.869Z,97.03
2022-09-24T14:08:06.575Z,97.36
2022-09-24T14:10:40.197Z,99.39
2022-09-24T14:13:21.772Z,96.92
2022-09-24T14:15:59.682Z,96.86
2022-09-24T14:18:31.027Z,97.61
2022-09-24T14:21:07.601Z,95.94
2022-09-24T14:23:42.642Z,97.01
2022-09-24T14:26:25.612Z,95.91
2022-09-24T14:28:56.236Z,96.82
2022-09-24T14:31:26.515Z,96.93
2022-09-24T14:33:56.468Z,100.00
2022-09-24T14:36:29.416Z,99.68
2022-09-24T14:39:05.692Z,98.44
2022-09-24T14:41:39.673Z,100.00
2022-09-24T14:44:16.483Z,97.41
2022-09-24T14:46:52.947Z,97.23
2022-09-24T14:49:26.473Z,96.68
2022-09-24T14:51:58.707Z,94.96
2022-09-24T14:54:35.766Z,97.87
2022-09-24T14:57:27.198Z,99.75
2022-09-24T14:59:56.968Z,98.37
2022-09-24T15:02:32.961Z,98.55
2022-09-24T15:05:06.686Z,97.32
2022-09-24T15:07:38.279Z,99.72
2022-09-24T15:10:09.319Z,100.00
2022-09-24T15:12:45.243Z,100.00
2022-09-24T15:15:32.209Z,100.00
2022-09-24T15:18:01.937Z,100.00
2022-09-24T15:20:31.725Z,100.00
2022-09-24T15:23:02.037Z,100.00
2022-09-24T15:25:32.508Z,100.00
2022-09-24T15:28:05.692Z,100.00
2022-09-24T15:30:35.956Z,100.00
2022-09-24T15:33:11.014Z,100.00
2022-09-24T15:35:40.858Z,99.31
2022-09-24T15:38:17.357Z,98.07
2022-09-24T15:40:47.407Z,98.78
2022-09-24T15:43:23.805Z,97.87
2022-09-24T15:45:54.933Z,100.00
2022-09-24T15:48:24.839Z,100.00
2022-09-24T15:50:54.564Z,100.00
2022-09-24T15:53:27.472Z,100.00
2022-09-24T15:55:59.249Z,100.00
2022-09-24T15:58:31.927Z,100.00
2022-09-24T16:01:01.634Z,100.00
2022-09-24T16:03:33.523Z,100.00
2022-09-24T16:06:03.550Z,100.00
2022-09-24T16:08:33.314Z,100.00
2022-09-24T16:11:06.873Z,99.67
2022-09-24T16:13:41.144Z,98.51
2022-09-24T16:16:11.772Z,98.72
2022-09-24T16:18:41.553Z,100.00
2022-09-24T16:21:12.400Z,100.00
2022-09-24T16:23:42.171Z,100.00
2022-09-24T16:26:12.293Z,100.00
2022-09-24T16:28:44.626Z,100.00
2022-09-24T16:31:14.541Z,100.00
2022-09-24T16:33:44.328Z,100.00
2022-09-24T16:36:15.184Z,100.00
2022-09-24T16:38:45.100Z,100.00
2022-09-24T16:41:14.883Z,100.00
2022-09-24T16:43:47.274Z,100.00
2022-09-24T16:46:20.640Z,100.00
2022-09-24T16:48:52.601Z,100.00
2022-09-24T16:51:22.656Z,100.00
2022-09-24T16:53:56.948Z,100.00
2022-09-24T16:56:27.066Z,100.00
2022-09-24T16:58:59.570Z,100.00
2022-09-24T17:01:29.509Z,100.00
2022-09-24T17:04:01.082Z,100.00
2022-09-24T17:06:34.196Z,100.00
2022-09-24T17:09:16.698Z,100.00
2022-09-24T17:11:48.601Z,100.00
2022-09-24T17:14:21.283Z,100.00
2022-09-24T17:16:51.015Z,100.00
2022-09-24T17:19:20.721Z,100.00
2022-09-24T17:21:50.615Z,100.00
2022-09-24T17:24:21.956Z,100.00
2022-09-24T17:26:52.116Z,100.00
2022-09-24T17:29:30.429Z,100.00
2022-09-24T17:32:01.288Z,100.00
2022-09-24T17:34:31.030Z,100.00
2022-09-24T17:37:00.823Z,100.00
2022-09-24T17:39:31.004Z,100.00
2022-09-24T17:42:00.991Z,100.00
2022-09-24T17:44:33.422Z,100.00
2022-09-24T17:47:03.692Z,100.00
2022-09-24T17:49:34.052Z,100.00
2022-09-24T17:52:04.570Z,100.00
2022-09-24T17:54:34.316Z,100.00
2022-09-24T17:57:04.066Z,100.00
2022-09-24T17:59:36.383Z,100.00
2022-09-24T18:02:06.933Z,100.00
2022-09-24T18:04:38.529Z,100.00
2022-09-24T18:07:08.329Z,100.00
2022-09-24T18:09:37.985Z,100.00
2022-09-24T18:12:08.054Z,100.00
2022-09-24T18:14:40.613Z,100.00
2022-09-24T18:17:10.648Z,100.00
2022-09-24T18:19:40.363Z,100.00
2022-09-24T18:22:11.464Z,100.00
2022-09-24T18:24:44.734Z,100.00
2022-09-24T18:27:16.183Z,100.00
2022-09-24T18:29:48.533Z,100.00
2022-09-24T18:32:19.489Z,100.00
2022-09-24T18:34:49.161Z,100.00
2022-09-24T18:37:18.856Z,100.00
2022-09-24T18:39:48.561Z,100.00
2022-09-24T18:42:18.231Z,100.00
2022-09-24T18:44:50.937Z,100.00
2022-09-24T18:47:20.898Z,100.00
2022-09-24T18:49:50.615Z,100.00
2022-09-24T18:52:20.368Z,100.00
2022-09-24T18:54:50.630Z,100.00
2022-09-24T18:57:20.543Z,100.00
2022-09-24T18:59:52.989Z,100.00
2022-09-24T19:02:25.349Z,100.00
2022-09-24T19:04:55.227Z,100.00
2022-09-24T19:07:25.049Z,100.00
2022-09-24T19:09:54.689Z,100.00
2022-09-24T19:12:26.214Z,100.00
2022-09-24T19:15:00.519Z,100.00
2022-09-24T19:17:30.226Z,100.00
2022-09-24T19:19:59.925Z,100.00
2022-09-24T19:22:29.735Z,100.00
2022-09-24T19:24:59.397Z,100.00
2022-09-24T19:27:29.262Z,100.00
2022-09-24T19:30:01.662Z,100.00
2022-09-24T19:32:32.058Z,100.00
2022-09-24T19:35:01.736Z,100.00
2022-09-24T19:37:31.394Z,100.00
2022-09-24T19:40:01.268Z,100.00
2022-09-24T19:42:30.877Z,100.00
2022-09-24T19:45:05.939Z,100.00
2022-09-24T19:47:36.008Z,100.00
2022-09-24T19:50:06.044Z,100.00
2022-09-24T19:52:35.712Z,100.00
2022-09-24T19:55:05.475Z,100.00
2022-09-24T19:57:36.294Z,100.00
2022-09-24T20:00:10.076Z,100.00
2022-09-24T20:02:39.920Z,100.00
2022-09-24T20:05:10.647Z,100.00
2022-09-24T20:07:42.088Z,100.00
2022-09-24T20:10:13.040Z,100.00
2022-09-24T20:12:46.726Z,100.00
2022-09-24T20:15:19.273Z,100.00
2022-09-24T20:17:48.988Z,100.00
2022-09-24T20:20:19.025Z,100.00
2022-09-24T20:22:48.686Z,100.00
2022-09-24T20:25:18.419Z,100.00
2022-09-24T20:27:51.774Z,100.00
2022-09-24T20:30:24.354Z,100.00
2022-09-24T20:32:54.133Z,100.00
2022-09-24T20:35:23.778Z,100.00
2022-09-24T20:37:53.423Z,100.00
2022-09-24T20:40:23.155Z,100.00
2022-09-24T20:42:52.857Z,100.00
2022-09-24T20:45:25.175Z,100.00
2022-09-24T20:47:54.852Z,100.00
2022-09-24T20:50:24.593Z,100.00
2022-09-24T20:52:54.348Z,100.00
2022-09-24T20:55:25.096Z,100.00
2022-09-24T20:57:55.145Z,100.00
2022-09-24T21:00:34.099Z,100.00
2022-09-24T21:03:19.924Z,100.00
2022-09-24T21:05:54.257Z,100.00
2022-09-24T21:08:24.112Z,100.00
2022-09-24T21:11:03.259Z,100.00
2022-09-24T21:13:34.089Z,100.00
2022-09-24T21:16:06.879Z,100.00
2022-09-24T21:18:40.422Z,100.00
2022-09-24T21:21:16.265Z,100.00
2022-09-24T21:23:47.144Z,100.00
2022-09-24T21:26:19.022Z,100.00
2022-09-24T21:28:49.856Z,100.00
2022-09-24T21:31:23.853Z,100.00
2022-09-24T21:33:55.636Z,100.00
2022-09-24T21:36:28.814Z,100.00
2022-09-24T21:39:00.288Z,100.00
2022-09-24T21:41:31.952Z,100.00
2022-09-24T21:44:02.357Z,100.00
2022-09-24T21:46:35.796Z,100.00
2022-09-24T21:49:05.913Z,100.00
2022-09-24T21:51:35.582Z,100.00
2022-09-24T21:54:07.028Z,100.00
2022-09-24T21:56:38.118Z,100.00
2022-09-24T21:59:29.153Z,100.00
2022-09-24T22:02:01.755Z,100.00
2022-09-24T22:04:33.483Z,100.00
2022-09-24T22:07:03.386Z,100.00
2022-09-24T22:09:33.845Z,100.00
2022-09-24T22:12:04.978Z,100.00
2022-09-24T22:14:35.473Z,100.00
2022-09-24T22:17:07.823Z,100.00
2022-09-24T22:19:37.762Z,100.00
2022-09-24T22:22:07.499Z,100.00
2022-09-24T22:24:37.184Z,100.00
2022-09-24T22:27:07.442Z,100.00
2022-09-24T22:29:37.141Z,100.00
2022-09-24T22:32:09.801Z,100.00
2022-09-24T22:34:51.901Z,100.00
2022-09-24T22:37:22.949Z,100.00
2022-09-24T22:39:52.586Z,100.00
2022-09-24T22:42:22.271Z,100.00
2022-09-24T22:44:52.005Z,100.00
2022-09-24T22:47:24.359Z,100.00
2022-09-24T22:49:54.221Z,100.00
2022-09-24T22:52:24.069Z,100.00
2022-09-24T22:54:53.813Z,100.00
2022-09-24T22:57:23.503Z,100.00
2022-09-24T22:59:53.312Z,100.00
2022-09-24T23:02:25.586Z,100.00
2022-09-24T23:04:55.413Z,100.00
2022-09-24T23:07:25.712Z,100.00
2022-09-24T23:09:55.450Z,100.00
2022-09-24T23:12:25.197Z,100.00
2022-09-24T23:14:55.799Z,100.00
2022-09-24T23:17:28.355Z,100.00
2022-09-24T23:19:58.113Z,100.00
2022-09-24T23:22:27.789Z,100.00
2022-09-24T23:24:57.812Z,100.00
2022-09-24T23:27:27.514Z,100.00
2022-09-24T23:29:57.303Z,100.00
2022-09-24T23:32:32.026Z,100.00
2022-09-24T23:35:02.055Z,100.00
2022-09-24T23:37:31.895Z,100.00
2022-09-24T23:40:01.642Z,100.00
2022-09-24T23:42:31.515Z,100.00
2022-09-24T23:45:01.210Z,100.00
2022-09-24T23:47:36.157Z,100.00
2022-09-24T23:50:06.429Z,100.00
2022-09-24T23:52:36.177Z,100.00
2022-09-24T23:55:05.859Z,100.00
2022-09-24T23:57:35.595Z,100.00
